Time;durP1;ratioP1;P1;durP2;ratioP2;P2;SDS_P1;SDS_P2;PMS_P1;PMS_P2;Temp;Humidity;BMP_temperature;BMP_pressure;BME280_temperature;BME280_humidity;BME280_pressure;Samples;Min_cycle;Max_cycle;Signal;HPM_P1;HPM_P2
2022/01/21 00:02:12;;;;;;;3.95;1.67;;;;;;;-2.13;74.03;102469.47;5010598;28;20248;-44
2022/01/21 00:04:38;;;;;;;9.63;1.83;;;;;;;-2.03;73.89;102464.56;5013019;28;20570;-45
2022/01/21 00:07:03;;;;;;;7.50;1.52;;;;;;;-2.04;74.65;102465.41;5013033;28;20236;-45
2022/01/21 00:09:29;;;;;;;3.90;1.67;;;;;;;-2.16;74.31;102465.84;5032770;28;20180;-46
2022/01/21 00:11:54;;;;;;;10.85;2.03;;;;;;;-2.23;74.58;102453.28;5032561;28;20239;-45
2022/01/21 00:14:20;;;;;;;4.88;1.75;;;;;;;-2.22;74.62;102469.09;5032157;28;20235;-47
2022/01/21 00:16:45;;;;;;;5.43;1.88;;;;;;;-2.17;74.25;102464.03;5032171;28;20287;-46
2022/01/21 00:19:14;;;;;;;7.28;1.55;;;;;;;-2.18;74.50;102462.25;5032085;28;20259;-45
2022/01/21 00:30:11;;;;;;;5.35;1.58;;;;;;;-2.18;74.51;102462.25;5014350;28;20784;-47
2022/01/21 00:32:36;;;;;;;5.32;1.45;;;;;;;-2.26;75.22;102463.66;5032217;28;20578;-48
2022/01/21 00:35:04;;;;;;;4.63;1.48;;;;;;;-2.28;75.21;102467.09;5032028;28;20207;-44
2022/01/21 00:37:29;;;;;;;7.30;1.70;;;;;;;-2.34;75.35;102472.13;5013792;28;20199;-47
2022/01/21 00:39:58;;;;;;;2.65;1.20;;;;;;;-2.39;76.04;102472.75;5031815;28;20255;-46
2022/01/21 00:44:51;;;;;;;6.60;1.17;;;;;;;-2.46;76.64;102445.38;5031834;28;20181;-46
2022/01/21 00:47:17;;;;;;;4.63;1.73;;;;;;;-2.47;76.88;102458.41;5013757;28;20577;-47
2022/01/21 00:49:43;;;;;;;5.38;1.48;;;;;;;-2.49;76.58;102448.78;5014503;28;20215;-43
2022/01/21 00:52:08;;;;;;;3.97;1.17;;;;;;;-2.50;76.73;102460.09;5031916;28;20284;-42
2022/01/21 00:54:33;;;;;;;7.45;2.08;;;;;;;-2.50;76.61;102451.31;5013834;28;20192;-42
2022/01/21 00:56:59;;;;;;;6.15;1.30;;;;;;;-2.57;77.06;102458.03;5031907;28;20246;-42
2022/01/21 00:59:24;;;;;;;4.10;1.48;;;;;;;-2.52;76.87;102446.00;5031828;28;20192;-41
2022/01/21 01:01:50;;;;;;;4.97;1.40;;;;;;;-2.42;77.49;102441.16;5032008;28;20180;-42
2022/01/21 01:04:15;;;;;;;3.90;1.45;;;;;;;-2.36;77.54;102451.88;5013779;28;20207;-42
2022/01/21 01:06:41;;;;;;;7.65;1.83;;;;;;;-2.25;78.18;102450.63;5031475;28;20656;-41
2022/01/21 01:09:07;;;;;;;6.10;1.40;;;;;;;-2.19;77.65;102450.84;5031744;28;20175;-40
2022/01/21 01:11:49;;;;;;;7.18;1.55;;;;;;;-2.07;77.78;102451.34;5031393;28;20160;-43
2022/01/21 01:22:25;;;;;;;4.30;1.70;;;;;;;-2.17;77.89;102450.91;5031402;28;20171;-45
2022/01/21 01:27:37;;;;;;;2.70;1.30;;;;;;;-2.23;77.91;102462.06;5013221;28;20211;-45
2022/01/21 01:30:05;;;;;;;5.18;1.70;;;;;;;-2.34;77.82;102460.72;5031470;28;20202;-43
2022/01/21 01:32:31;;;;;;;8.25;1.55;;;;;;;-2.36;77.97;102465.94;5031378;28;20664;-43
2022/01/21 01:34:57;;;;;;;8.68;1.48;;;;;;;-2.45;78.57;102476.03;5013191;28;20196;-42
2022/01/21 01:37:35;;;;;;;5.78;1.88;;;;;;;-2.46;78.45;102466.38;5013130;28;20640;-41
2022/01/21 01:43:08;;;;;;;10.35;2.25;;;;;;;-2.54;78.74;102460.78;5013323;28;20281;-43
2022/01/21 01:50:56;;;;;;;5.88;2.05;;;;;;;-2.59;79.32;102427.34;5030986;28;20776;-43
2022/01/21 01:53:35;;;;;;;8.32;1.60;;;;;;;-2.57;79.38;102442.31;4996991;28;20230;-44
2022/01/21 01:56:04;;;;;;;9.15;1.70;;;;;;;-2.52;79.35;102443.38;5012737;28;20931;-40
2022/01/21 01:58:35;;;;;;;6.55;1.58;;;;;;;-2.61;79.70;102436.88;5030736;28;20225;-42
2022/01/21 02:01:01;;;;;;;5.53;1.40;;;;;;;-2.62;79.70;102438.59;4996484;28;20183;-41
2022/01/21 02:03:26;;;;;;;5.50;1.67;;;;;;;-2.53;79.76;102440.72;5030575;28;20310;-41
2022/01/21 02:05:52;;;;;;;8.93;1.30;;;;;;;-2.62;79.60;102435.97;5030356;28;20835;-44
2022/01/21 02:08:17;;;;;;;5.85;1.67;;;;;;;-2.61;80.19;102434.25;5030169;28;20176;-43
2022/01/21 02:10:43;;;;;;;5.90;1.65;;;;;;;-2.68;80.40;102440.97;5030497;28;20175;-40
2022/01/21 02:13:21;;;;;;;7.32;1.45;;;;;;;-2.69;79.94;102439.16;5012557;28;20846;-41
2022/01/21 02:16:01;;;;;;;10.18;1.63;;;;;;;-2.62;79.97;102445.59;5030287;28;20230;-42
2022/01/21 02:21:34;;;;;;;6.78;1.55;;;;;;;-2.58;79.92;102440.53;5030177;28;20156;-40
2022/01/21 02:24:03;;;;;;;7.78;1.40;;;;;;;-2.57;80.05;102434.44;5030277;28;20569;-40
2022/01/21 02:26:29;;;;;;;4.68;1.40;;;;;;;-2.59;80.46;102417.72;5011742;28;20745;-43
2022/01/21 02:28:56;;;;;;;4.55;1.58;;;;;;;-2.61;80.35;102413.25;5030108;28;20252;-41
2022/01/21 02:31:22;;;;;;;8.88;1.60;;;;;;;-2.64;79.88;102410.53;5012162;28;20180;-41
2022/01/21 02:33:48;;;;;;;4.85;1.38;;;;;;;-2.60;80.58;102405.47;5012402;28;20204;-40
2022/01/21 02:36:13;;;;;;;9.45;1.85;;;;;;;-2.61;80.50;102414.16;5029787;28;20202;-42
2022/01/21 02:38:39;;;;;;;9.63;1.98;;;;;;;-2.61;80.19;102406.28;5012018;28;20965;-43
2022/01/21 02:41:05;;;;;;;6.22;1.80;;;;;;;-2.67;80.29;102419.13;5005256;28;20172;-42
2022/01/21 02:43:30;;;;;;;6.60;1.65;;;;;;;-2.64;80.50;102413.16;5038371;28;20630;-41
2022/01/21 02:45:56;;;;;;;8.18;1.50;;;;;;;-2.62;80.46;102417.63;5049587;28;20195;-44
2022/01/21 02:48:23;;;;;;;11.20;2.03;;;;;;;-2.64;80.20;102411.41;5031782;28;20171;-44
2022/01/21 02:50:52;;;;;;;9.52;1.95;;;;;;;-2.61;81.10;102416.75;5031919;28;20248;-40
2022/01/21 02:53:38;;;;;;;5.93;1.73;;;;;;;-2.65;81.19;102416.59;5031946;28;20179;-42
2022/01/21 02:56:05;;;;;;;6.38;1.80;;;;;;;-2.59;81.20;102422.97;5015594;28;20199;-41
2022/01/21 02:58:32;;;;;;;9.65;1.90;;;;;;;-2.59;81.97;102415.09;5049936;28;20175;-40
2022/01/21 03:01:00;;;;;;;10.68;2.35;;;;;;;-2.60;82.08;102423.81;5031153;28;20700;-41
2022/01/21 03:03:25;;;;;;;7.45;2.08;;;;;;;-2.58;82.07;102434.34;5049846;28;20244;-40
2022/01/21 03:05:52;;;;;;;6.95;1.40;;;;;;;-2.54;81.93;102433.66;5031559;28;20210;-43
2022/01/21 03:08:18;;;;;;;5.85;1.80;;;;;;;-2.42;82.61;102423.66;5031736;28;20656;-40
2022/01/21 03:10:43;;;;;;;4.57;1.55;;;;;;;-2.42;82.38;102425.41;5049082;28;20600;-40
2022/01/21 03:13:09;;;;;;;7.72;1.70;;;;;;;-2.41;82.37;102432.44;5031645;28;20274;-44
2022/01/21 03:15:34;;;;;;;6.28;1.77;;;;;;;-2.34;82.51;102432.75;5031053;28;20277;-42
2022/01/21 03:17:59;;;;;;;12.60;1.77;;;;;;;-2.36;82.61;102428.25;5031566;28;20198;-41
2022/01/21 03:20:25;;;;;;;5.45;1.75;;;;;;;-2.40;82.79;102423.75;5031542;28;20710;-41
2022/01/21 03:22:50;;;;;;;7.25;2.20;;;;;;;-2.42;83.55;102412.28;5031366;28;20176;-42
2022/01/21 03:25:16;;;;;;;8.95;2.03;;;;;;;-2.38;83.48;102419.47;5031619;28;20254;-40
2022/01/21 03:27:41;;;;;;;8.55;2.05;;;;;;;-2.45;83.67;102420.91;5048950;28;20238;-43
2022/01/21 03:30:09;;;;;;;9.48;2.13;;;;;;;-2.46;84.13;102428.75;5031362;28;20177;-41
2022/01/21 03:32:40;;;;;;;11.55;2.10;;;;;;;-2.36;85.01;102421.31;5031348;28;20712;-39
2022/01/21 03:35:07;;;;;;;14.13;2.80;;;;;;;-2.40;84.49;102434.25;5031738;28;20192;-41
2022/01/21 03:37:33;;;;;;;9.45;1.92;;;;;;;-2.31;85.29;102430.25;5033188;28;20191;-40
2022/01/21 03:39:59;;;;;;;10.13;2.05;;;;;;;-2.25;85.17;102418.19;5035307;28;20185;-42
2022/01/21 03:42:24;;;;;;;12.48;1.92;;;;;;;-2.26;85.57;102434.78;5035291;28;20206;-40
2022/01/21 03:44:50;;;;;;;8.23;1.92;;;;;;;-2.19;85.52;102435.06;5052778;28;20664;-41
2022/01/21 03:47:15;;;;;;;8.63;1.65;;;;;;;-2.13;85.23;102439.69;5035101;28;20252;-42
2022/01/21 03:49:50;;;;;;;7.65;1.58;;;;;;;-2.14;85.44;102441.44;5034886;28;20255;-40
2022/01/21 03:52:16;;;;;;;10.93;1.73;;;;;;;-2.08;85.42;102449.56;5035167;28;20171;-42
2022/01/21 03:54:42;;;;;;;11.30;2.35;;;;;;;-2.10;85.35;102445.06;5034786;28;20579;-42
2022/01/21 03:57:07;;;;;;;8.30;1.70;;;;;;;-2.04;85.82;102447.94;5034610;28;20187;-43
2022/01/21 03:59:33;;;;;;;11.15;1.88;;;;;;;-2.01;86.07;102450.69;5053057;28;20556;-41
2022/01/21 04:01:59;;;;;;;8.20;2.33;;;;;;;-2.00;85.78;102438.44;5052733;28;20179;-41
2022/01/21 04:04:25;;;;;;;9.05;1.98;;;;;;;-2.01;86.06;102427.06;5035028;28;20238;-41
2022/01/21 04:06:51;;;;;;;7.60;1.92;;;;;;;-2.04;85.51;102415.53;5034123;28;20345;-42
2022/01/21 04:09:17;;;;;;;12.73;1.90;;;;;;;-2.03;85.77;102414.69;4996795;28;20274;-41
2022/01/21 04:11:44;;;;;;;6.80;1.80;;;;;;;-2.10;85.64;102435.47;4995159;28;20168;-42
2022/01/21 04:14:09;;;;;;;6.28;1.90;;;;;;;-2.07;85.92;102425.06;5011607;28;20596;-43
2022/01/21 04:16:35;;;;;;;11.30;1.63;;;;;;;-2.09;86.10;102432.00;5012735;28;20211;-43
2022/01/21 04:19:00;;;;;;;12.70;2.03;;;;;;;-2.16;86.26;102416.84;4995201;28;20525;-43
2022/01/21 04:21:27;;;;;;;10.32;1.90;;;;;;;-2.11;86.55;102423.16;5011429;28;20179;-41
2022/01/21 04:23:53;;;;;;;9.52;1.67;;;;;;;-2.16;87.19;102424.72;4995064;28;20172;-42
2022/01/21 04:26:28;;;;;;;8.95;1.88;;;;;;;-2.16;87.27;102429.97;5011344;28;20200;-44
2022/01/21 04:29:04;;;;;;;4.30;1.60;;;;;;;-2.18;87.24;102423.75;5011649;28;20268;-42
2022/01/21 04:31:37;;;;;;;8.45;1.60;;;;;;;-2.21;87.83;102441.09;5011590;28;20176;-42
2022/01/21 04:34:03;;;;;;;9.20;2.15;;;;;;;-2.16;87.71;102440.47;5011374;28;20204;-41
2022/01/21 04:36:29;;;;;;;11.43;2.00;;;;;;;-2.15;87.54;102444.88;5010673;28;20201;-42
2022/01/21 04:38:57;;;;;;;11.23;1.70;;;;;;;-2.12;87.62;102457.22;5011129;28;20621;-42
2022/01/21 04:47:16;;;;;;;11.55;1.83;;;;;;;-2.09;88.14;102460.00;5022170;28;20210;-41
2022/01/21 04:49:37;;;;;;;8.50;2.15;;;;;;;-2.17;88.15;102461.41;5010631;28;20637;-41
2022/01/21 04:52:03;;;;;;;9.15;1.55;;;;;;;-2.12;88.02;102467.72;5011749;28;20192;-42
2022/01/21 04:54:41;;;;;;;10.30;2.17;;;;;;;-2.09;87.73;102468.75;5014309;28;20639;-43
2022/01/21 04:57:07;;;;;;;10.23;2.25;;;;;;;-2.16;87.90;102464.09;5013966;28;20287;-43
2022/01/21 04:59:33;;;;;;;8.05;1.60;;;;;;;-2.08;88.21;102481.06;4997784;28;20196;-42
2022/01/21 05:01:59;;;;;;;12.98;2.00;;;;;;;-2.07;88.31;102476.72;5014096;28;20194;-42
2022/01/21 05:04:25;;;;;;;5.43;1.55;;;;;;;-2.05;87.25;102475.03;5013733;28;20172;-42
2022/01/21 05:06:53;;;;;;;7.97;2.15;;;;;;;-2.04;87.51;102496.94;5013472;28;20187;-44
2022/01/21 05:09:19;;;;;;;4.20;1.80;;;;;;;-2.04;87.58;102495.19;4994349;28;20276;-40
2022/01/21 05:11:51;;;;;;;8.85;1.90;;;;;;;-2.04;87.50;102497.81;4993960;28;20180;-42
2022/01/21 05:14:24;;;;;;;11.98;1.65;;;;;;;-2.04;87.48;102499.56;5011442;28;20211;-44
2022/01/21 05:17:04;;;;;;;11.65;1.88;;;;;;;-2.03;87.22;102498.72;4993567;28;20257;-44
2022/01/21 05:19:29;;;;;;;11.13;1.95;;;;;;;-2.01;87.40;102515.44;4994094;28;20185;-43
2022/01/21 05:21:57;;;;;;;8.68;1.90;;;;;;;-1.94;86.78;102509.63;5011600;28;20184;-42
2022/01/21 05:24:28;;;;;;;11.25;1.63;;;;;;;-1.96;86.42;102511.28;4993675;28;20683;-40
2022/01/21 05:26:57;;;;;;;10.13;2.00;;;;;;;-1.99;86.58;102503.25;4993199;28;20303;-43
2022/01/21 05:29:30;;;;;;;6.10;1.58;;;;;;;-2.00;85.86;102519.88;4994004;28;20270;-42
2022/01/21 05:32:05;;;;;;;6.75;1.75;;;;;;;-1.94;85.68;102518.38;4993679;28;20553;-42
2022/01/21 05:34:34;;;;;;;8.68;1.50;;;;;;;-1.96;85.64;102522.69;4993324;28;20200;-40
2022/01/21 05:37:14;;;;;;;7.32;1.70;;;;;;;-1.95;85.81;102516.56;4993120;28;20350;-42
2022/01/21 05:40:08;;;;;;;9.05;1.65;;;;;;;-1.96;85.50;102511.28;4993564;28;20589;-42
2022/01/21 05:42:45;;;;;;;10.68;1.67;;;;;;;-1.94;85.01;102507.88;4993696;28;20630;-42
2022/01/21 05:48:32;;;;;;;8.45;1.23;;;;;;;-2.08;85.02;102504.72;5011160;28;20259;-41
2022/01/21 05:51:09;;;;;;;6.03;1.80;;;;;;;-2.02;84.42;102511.91;5010817;28;20179;-41
2022/01/21 05:54:13;;;;;;;6.90;1.55;;;;;;;-2.04;84.52;102502.19;4991783;28;20219;-42
2022/01/21 05:57:11;;;;;;;7.25;1.52;;;;;;;-2.13;84.84;102519.34;5001077;28;20290;-43
2022/01/21 05:59:39;;;;;;;6.88;1.33;;;;;;;-2.08;85.58;102523.09;5010382;28;20161;-42
2022/01/21 06:02:06;;;;;;;9.10;1.75;;;;;;;-2.06;85.34;102531.00;5010206;28;20510;-42
2022/01/21 06:04:33;;;;;;;2.88;1.20;;;;;;;-2.11;85.08;102528.19;4993151;28;20169;-41
2022/01/21 06:07:00;;;;;;;12.38;1.88;;;;;;;-2.13;84.14;102529.84;4992315;28;20215;-41
2022/01/21 06:09:27;;;;;;;3.55;1.38;;;;;;;-2.08;84.49;102532.66;5009385;28;20176;-41
2022/01/21 06:11:52;;;;;;;10.18;1.80;;;;;;;-2.14;84.23;102524.56;5009392;28;20258;-43
2022/01/21 06:14:18;;;;;;;8.65;1.88;;;;;;;-1.96;83.45;102537.53;5009651;28;20325;-47
2022/01/21 06:16:43;;;;;;;7.10;1.50;;;;;;;-1.99;83.30;102534.78;5008939;28;20207;-47
2022/01/21 06:19:09;;;;;;;5.75;0.90;;;;;;;-2.04;83.50;102528.44;5009638;28;20495;-47
2022/01/21 06:21:34;;;;;;;7.55;1.50;;;;;;;-2.08;83.49;102535.28;5008390;28;20169;-47
2022/01/21 06:23:59;;;;;;;4.55;1.10;;;;;;;-2.10;83.46;102536.97;5009344;28;20272;-47
2022/01/21 06:26:25;;;;;;;8.82;1.83;;;;;;;-2.04;82.85;102538.97;5007945;28;20696;-47
2022/01/21 06:28:50;;;;;;;5.90;1.50;;;;;;;-2.13;82.98;102537.72;5009807;28;20259;-47
2022/01/21 06:31:16;;;;;;;6.15;1.40;;;;;;;-2.14;83.07;102549.09;5007988;28;20188;-45
2022/01/21 06:33:41;;;;;;;7.35;1.35;;;;;;;-2.18;83.48;102539.28;5009288;28;20183;-45
2022/01/21 06:36:07;;;;;;;7.00;1.45;;;;;;;-2.20;83.36;102538.31;5007105;28;20303;-48
2022/01/21 06:38:32;;;;;;;7.40;1.15;;;;;;;-2.29;83.12;102548.44;5009626;28;20545;-48
2022/01/21 06:40:58;;;;;;;10.02;1.50;;;;;;;-2.38;83.36;102537.56;5009798;28;20168;-45
2022/01/21 06:43:23;;;;;;;4.47;1.52;;;;;;;-2.46;84.02;102554.72;5009203;28;20191;-46
2022/01/21 06:45:49;;;;;;;5.85;1.30;;;;;;;-2.42;83.71;102551.38;5008853;28;20200;-46
2022/01/21 06:48:14;;;;;;;6.30;1.40;;;;;;;-2.44;84.41;102538.19;5009158;28;20183;-45
2022/01/21 06:50:41;;;;;;;6.65;1.75;;;;;;;-2.50;84.29;102544.06;5003059;28;20172;-48
2022/01/21 06:53:08;;;;;;;9.27;1.38;;;;;;;-2.58;84.82;102539.31;5008951;28;20184;-47
2022/01/21 06:55:33;;;;;;;3.58;1.08;;;;;;;-2.67;84.86;102542.44;5008887;28;20212;-47
2022/01/21 06:57:59;;;;;;;2.08;1.08;;;;;;;-2.57;85.22;102542.00;5008989;28;20182;-45
2022/01/21 07:00:25;;;;;;;5.55;1.38;;;;;;;-2.52;85.25;102527.34;5008922;28;20620;-44
2022/01/21 07:02:52;;;;;;;5.20;1.20;;;;;;;-2.44;85.11;102553.94;5008988;28;20176;-44
2022/01/21 07:05:19;;;;;;;3.65;1.60;;;;;;;-2.49;85.09;102550.22;4991188;28;20165;-45
2022/01/21 07:07:45;;;;;;;2.50;1.00;;;;;;;-2.57;84.84;102560.38;5008694;28;20816;-48
2022/01/21 07:10:13;;;;;;;5.82;1.63;;;;;;;-2.56;85.47;102559.56;5009024;28;20219;-46
2022/01/21 07:12:39;;;;;;;7.78;1.52;;;;;;;-2.57;85.41;102573.50;5010887;28;20575;-49
2022/01/21 07:15:06;;;;;;;3.85;1.27;;;;;;;-2.62;85.82;102571.53;4979654;28;1128279;-48
2022/01/21 07:17:32;;;;;;;5.97;1.23;;;;;;;-2.64;85.51;102568.81;5025858;28;20245;-47
2022/01/21 07:19:58;;;;;;;3.80;1.10;;;;;;;-2.51;85.43;102563.28;5033116;28;20254;-46
2022/01/21 07:22:23;;;;;;;6.18;1.40;;;;;;;-2.50;85.14;102572.03;5032877;28;20639;-44
2022/01/21 07:24:48;;;;;;;5.78;1.30;;;;;;;-2.55;85.26;102579.72;5015593;28;20270;-47
2022/01/21 07:27:14;;;;;;;4.88;1.48;;;;;;;-2.54;85.09;102570.09;5032098;28;20248;-46
2022/01/21 07:29:39;;;;;;;3.95;1.02;;;;;;;-2.58;85.43;102581.28;5032797;28;20183;-44
2022/01/21 07:32:06;;;;;;;9.45;1.92;;;;;;;-2.55;85.05;102574.47;5032466;28;20221;-47
2022/01/21 07:34:31;;;;;;;3.75;1.52;;;;;;;-2.58;85.21;102571.72;5014861;28;20218;-48
2022/01/21 07:36:57;;;;;;;4.35;1.35;;;;;;;-2.58;85.71;102570.81;5032643;28;20184;-47
2022/01/21 07:39:23;;;;;;;5.65;1.50;;;;;;;-2.63;85.51;102573.22;5003435;28;20173;-44
2022/01/21 07:41:49;;;;;;;5.68;1.50;;;;;;;-2.61;85.35;102576.81;5030506;28;20169;-45
2022/01/21 07:44:15;;;;;;;6.35;1.38;;;;;;;-2.63;85.81;102581.09;5015003;28;20239;-47
2022/01/21 07:46:43;;;;;;;5.00;1.50;;;;;;;-2.57;85.88;102573.50;5032184;28;20196;-48
2022/01/21 07:49:09;;;;;;;6.32;2.03;;;;;;;-2.53;86.38;102582.41;5022149;28;20188;-46
2022/01/21 07:51:35;;;;;;;6.10;1.33;;;;;;;-2.47;86.04;102580.06;5012771;28;20212;-44
2022/01/21 07:54:00;;;;;;;5.57;1.20;;;;;;;-2.39;86.03;102583.00;5012784;28;20197;-47
2022/01/21 07:56:26;;;;;;;5.47;1.50;;;;;;;-2.39;85.56;102591.75;5012229;28;20209;-46
2022/01/21 07:58:52;;;;;;;7.40;1.40;;;;;;;-2.40;85.85;102597.84;5011410;28;20219;-45
2022/01/21 08:01:18;;;;;;;3.97;1.45;;;;;;;-2.35;85.81;102587.56;5026683;28;20172;-45
2022/01/21 08:03:44;;;;;;;4.57;1.13;;;;;;;-2.29;85.59;102591.34;4996690;28;20188;-46
2022/01/21 08:06:09;;;;;;;7.63;2.05;;;;;;;-2.22;85.01;102583.72;5012469;28;20236;-46
2022/01/21 08:08:35;;;;;;;8.02;1.55;;;;;;;-2.19;84.79;102596.97;5012227;28;20265;-49
2022/01/21 08:11:00;;;;;;;5.60;1.58;;;;;;;-2.16;85.04;102613.78;5011468;28;20192;-45
2022/01/21 08:13:27;;;;;;;3.45;1.52;;;;;;;-2.19;84.27;102603.13;4992450;28;20263;-44
2022/01/21 08:15:53;;;;;;;7.30;1.98;;;;;;;-2.19;83.75;102618.88;5011923;28;20224;-48
2022/01/21 08:18:19;;;;;;;8.27;1.90;;;;;;;-2.13;84.88;102618.25;5012980;28;20168;-46
2022/01/21 08:20:45;;;;;;;7.60;1.52;;;;;;;-2.12;84.40;102618.31;5026853;28;20252;-44
2022/01/21 08:23:12;;;;;;;8.23;1.40;;;;;;;-2.07;84.66;102608.91;5034399;28;20177;-43
2022/01/21 08:25:38;;;;;;;9.60;1.42;;;;;;;-2.05;84.18;102616.84;5012154;28;20586;-44
2022/01/21 08:28:04;;;;;;;6.47;1.65;;;;;;;-2.02;83.81;102622.22;5012689;28;20211;-45
2022/01/21 08:30:29;;;;;;;5.70;1.38;;;;;;;-1.93;83.25;102622.59;5012838;28;20181;-44
2022/01/21 08:32:54;;;;;;;6.05;1.70;;;;;;;-1.92;82.50;102616.53;5012400;28;20169;-45
2022/01/21 08:35:20;;;;;;;5.05;1.73;;;;;;;-1.85;82.60;102614.16;5011474;28;20316;-44
2022/01/21 08:37:46;;;;;;;7.05;1.38;;;;;;;-1.71;82.48;102636.63;5029915;28;20288;-43
2022/01/21 08:40:12;;;;;;;5.32;1.50;;;;;;;-1.57;81.76;102630.22;5041212;28;20532;-45
2022/01/21 08:42:37;;;;;;;6.25;1.77;;;;;;;-1.52;81.87;102638.28;5030794;28;20258;-42
2022/01/21 08:45:03;;;;;;;6.35;1.70;;;;;;;-1.33;80.23;102629.41;5031693;28;20259;-43
2022/01/21 08:47:29;;;;;;;4.50;1.40;;;;;;;-1.23;79.96;102633.28;5031699;28;20666;-44
2022/01/21 08:49:56;;;;;;;7.32;1.48;;;;;;;-1.09;79.30;102632.13;5032079;28;20176;-43
2022/01/21 08:52:25;;;;;;;3.70;1.33;;;;;;;-1.05;78.93;102639.25;5032094;28;20175;-42
2022/01/21 08:54:51;;;;;;;8.40;1.50;;;;;;;-0.84;78.90;102644.44;5032042;28;20200;-45
2022/01/21 08:57:17;;;;;;;8.25;1.60;;;;;;;-0.80;77.48;102637.59;5031247;28;20726;-42
2022/01/21 08:59:42;;;;;;;3.53;1.83;;;;;;;-0.73;77.27;102650.13;5032170;28;20180;-43
2022/01/21 09:02:09;;;;;;;5.82;2.25;;;;;;;-0.63;76.44;102645.25;5031700;28;20160;-44
2022/01/21 09:04:35;;;;;;;5.93;1.60;;;;;;;-0.43;75.06;102640.72;5014294;28;20674;-45
2022/01/21 09:07:01;;;;;;;8.25;1.60;;;;;;;-0.55;75.60;102637.63;5013931;28;20192;-44
2022/01/21 09:09:28;;;;;;;5.43;1.70;;;;;;;-0.37;74.81;102628.59;5031785;28;20173;-44
2022/01/21 09:11:59;;;;;;;6.13;1.55;;;;;;;-0.43;74.55;102632.81;5013775;28;20659;-43
2022/01/21 09:14:28;;;;;;;4.95;1.55;;;;;;;-0.35;74.57;102634.81;5031440;28;20218;-44
2022/01/21 09:16:54;;;;;;;8.13;1.55;;;;;;;-0.29;74.23;102628.03;5031623;28;20210;-46
2022/01/21 09:19:20;;;;;;;7.53;1.55;;;;;;;-0.18;74.28;102623.16;5013900;28;20222;-43
2022/01/21 09:21:45;;;;;;;8.18;1.35;;;;;;;-0.23;74.53;102630.88;5031612;28;20192;-42
2022/01/21 09:24:11;;;;;;;5.88;1.60;;;;;;;-0.05;74.57;102624.47;5031372;28;20170;-45
2022/01/21 09:26:37;;;;;;;4.60;1.00;;;;;;;0.01;74.38;102623.78;5031002;28;20188;-45
2022/01/21 09:29:05;;;;;;;4.68;1.50;;;;;;;0.07;74.33;102616.09;5013694;28;20176;-46
2022/01/21 09:31:31;;;;;;;3.35;1.30;;;;;;;0.20;73.30;102624.47;5031298;28;20838;-44
2022/01/21 09:33:56;;;;;;;5.65;1.50;;;;;;;0.12;73.50;102618.03;5030027;28;20183;-45
2022/01/21 09:36:22;;;;;;;6.10;1.20;;;;;;;0.22;73.56;102615.69;5039416;28;20191;-45
2022/01/21 09:38:48;;;;;;;6.60;1.48;;;;;;;0.25;73.08;102614.06;5050892;28;20251;-45
2022/01/21 09:41:15;;;;;;;5.95;1.30;;;;;;;0.45;73.15;102617.34;5045382;28;20170;-43
2022/01/21 09:43:45;;;;;;;4.28;1.85;;;;;;;0.44;72.33;102622.56;5029531;28;20242;-44
2022/01/21 09:46:12;;;;;;;6.05;1.55;;;;;;;0.41;72.51;102621.63;5029557;28;20195;-45
2022/01/21 09:48:51;;;;;;;4.15;1.58;;;;;;;0.42;72.11;102617.25;5024673;28;20578;-42
2022/01/21 09:51:17;;;;;;;5.72;2.08;;;;;;;0.50;72.04;102614.84;5009940;28;20168;-44
2022/01/21 09:53:43;;;;;;;2.85;1.60;;;;;;;0.52;71.77;102629.88;5011258;28;20219;-44
2022/01/21 09:56:14;;;;;;;6.50;2.03;;;;;;;0.68;70.90;102618.09;5010424;28;20710;-43
2022/01/21 09:58:43;;;;;;;1.65;1.30;;;;;;;0.79;71.11;102624.59;5010088;28;20166;-44
2022/01/21 10:01:09;;;;;;;4.75;1.35;;;;;;;0.89;70.62;102630.13;5011134;28;20211;-43
2022/01/21 10:03:35;;;;;;;2.67;1.40;;;;;;;0.92;70.36;102631.16;5010755;28;20200;-44
2022/01/21 10:06:03;;;;;;;5.80;1.50;;;;;;;0.96;69.80;102626.84;5010311;28;20606;-44
2022/01/21 10:08:31;;;;;;;8.45;1.77;;;;;;;1.03;70.88;102623.56;5010564;28;20184;-43
2022/01/21 10:10:56;;;;;;;4.28;1.75;;;;;;;1.09;70.24;102620.19;5010876;28;20164;-45
2022/01/21 10:13:22;;;;;;;5.28;1.52;;;;;;;1.09;69.95;102629.00;5010847;28;20611;-45
2022/01/21 10:15:48;;;;;;;5.00;1.70;;;;;;;1.30;70.13;102626.09;5010204;28;20208;-44
2022/01/21 10:18:15;;;;;;;5.28;1.60;;;;;;;1.14;70.25;102623.88;5010846;28;20664;-42
2022/01/21 10:20:58;;;;;;;5.10;1.60;;;;;;;1.28;70.57;102633.06;5010426;28;20279;-43
2022/01/21 10:23:24;;;;;;;9.63;2.08;;;;;;;1.34;70.69;102629.72;5010927;28;20181;-44
2022/01/21 10:25:58;;;;;;;7.10;1.92;;;;;;;1.24;70.97;102629.44;5010114;28;20597;-42
2022/01/21 10:28:24;;;;;;;5.95;1.75;;;;;;;1.49;70.78;102627.53;5010838;28;20330;-43
2022/01/21 10:31:04;;;;;;;8.48;1.65;;;;;;;1.39;70.54;102628.09;5010598;28;20255;-43
2022/01/21 10:33:29;;;;;;;6.60;1.60;;;;;;;1.36;70.63;102625.38;5010418;28;20181;-42
2022/01/21 10:36:10;;;;;;;4.60;1.40;;;;;;;1.39;70.71;102623.72;5009946;28;20614;-44
2022/01/21 10:38:46;;;;;;;4.65;1.83;;;;;;;1.41;71.19;102624.66;5010642;28;20231;-42
2022/01/21 10:41:15;;;;;;;8.00;1.50;;;;;;;1.49;70.69;102619.59;5010438;28;20164;-44
2022/01/21 10:43:41;;;;;;;3.75;1.50;;;;;;;1.60;70.99;102615.50;5034299;28;20210;-42
2022/01/21 10:46:08;;;;;;;6.93;1.95;;;;;;;1.67;71.15;102618.31;5048357;28;20211;-44
2022/01/21 10:48:57;;;;;;;5.22;1.33;;;;;;;1.60;71.06;102619.91;5037668;28;20251;-44
2022/01/21 10:51:25;;;;;;;5.68;1.63;;;;;;;1.83;71.10;102623.16;5007349;28;20610;-42
2022/01/21 10:53:52;;;;;;;3.80;1.98;;;;;;;1.82;71.29;102613.44;4995788;28;20196;-44
2022/01/21 10:56:18;;;;;;;6.55;1.55;;;;;;;1.83;71.96;102602.88;5008574;28;20197;-45
2022/01/21 10:58:52;;;;;;;5.40;1.55;;;;;;;1.83;72.31;102602.00;5007275;28;20176;-45
2022/01/21 11:01:26;;;;;;;4.45;1.63;;;;;;;1.82;72.53;102603.75;5009475;28;20181;-46
2022/01/21 11:04:17;;;;;;;4.68;1.33;;;;;;;2.02;72.90;102611.31;5010193;28;20597;-43
2022/01/21 11:06:50;;;;;;;7.75;1.73;;;;;;;1.75;73.24;102608.81;5006374;28;20303;-43
2022/01/21 11:09:22;;;;;;;9.48;2.67;;;;;;;1.75;74.10;102599.19;5010270;28;20260;-43
2022/01/21 11:12:06;;;;;;;6.35;1.40;;;;;;;1.68;74.86;102598.97;5010164;28;20173;-42
2022/01/21 11:14:31;;;;;;;6.70;1.80;;;;;;;1.68;74.97;102607.78;5009775;28;20208;-44
2022/01/21 11:17:08;;;;;;;6.75;1.92;;;;;;;1.62;75.55;102600.59;5009659;28;20569;-45
2022/01/21 11:19:35;;;;;;;4.90;1.73;;;;;;;1.65;76.21;102595.38;4992290;28;20160;-42
2022/01/21 11:22:04;;;;;;;8.32;1.60;;;;;;;1.75;76.61;102595.63;5010437;28;20174;-43
2022/01/21 11:24:29;;;;;;;7.78;2.00;;;;;;;1.82;76.89;102587.03;5009900;28;20168;-42
2022/01/21 11:27:16;;;;;;;7.30;2.00;;;;;;;1.82;77.57;102587.91;5015927;28;20228;-44
2022/01/21 11:29:46;;;;;;;8.07;1.73;;;;;;;2.00;77.55;102582.19;5029553;28;20187;-38
2022/01/21 11:32:14;;;;;;;8.98;1.77;;;;;;;2.17;78.14;102585.25;5029752;28;20153;-41
2022/01/21 11:34:41;;;;;;;8.40;1.70;;;;;;;2.26;77.54;102590.78;5029364;28;20203;-40
2022/01/21 11:37:08;;;;;;;10.30;1.65;;;;;;;2.24;77.84;102583.66;5029466;28;20207;-41
2022/01/21 11:39:34;;;;;;;10.85;1.98;;;;;;;2.44;78.01;102578.84;5029454;28;20214;-42
2022/01/21 11:42:02;;;;;;;13.80;1.67;;;;;;;2.52;78.50;102563.16;5029626;28;20168;-42
2022/01/21 11:44:29;;;;;;;6.47;1.60;;;;;;;2.48;78.07;102571.00;5029818;28;20221;-42
2022/01/21 11:49:41;;;;;;;7.38;1.92;;;;;;;2.69;79.32;102556.50;5029747;28;20181;-41
2022/01/21 11:52:11;;;;;;;16.23;2.85;;;;;;;2.67;78.77;102559.09;5029156;28;20188;-41
2022/01/21 11:54:37;;;;;;;9.82;2.55;;;;;;;2.79;79.26;102553.16;5028866;28;20195;-40
2022/01/21 11:57:05;;;;;;;11.20;2.35;;;;;;;2.95;78.72;102548.19;5032064;28;20314;-44
2022/01/21 11:59:36;;;;;;;8.63;2.25;;;;;;;2.98;78.56;102548.28;5032337;28;20164;-43
2022/01/21 12:02:21;;;;;;;8.32;2.05;;;;;;;3.06;78.88;102554.59;5018398;28;20180;-42
2022/01/21 12:04:57;;;;;;;11.02;2.40;;;;;;;3.11;79.49;102542.38;5012977;28;20208;-42
2022/01/21 12:07:34;;;;;;;10.07;1.92;;;;;;;3.27;79.14;102541.81;5012741;28;20199;-43
2022/01/21 12:10:04;;;;;;;14.75;2.47;;;;;;;3.26;80.01;102553.28;5013071;28;20237;-42
2022/01/21 12:12:45;;;;;;;13.35;3.05;;;;;;;3.27;79.64;102541.81;5012731;28;20603;-43
2022/01/21 12:15:31;;;;;;;13.93;3.00;;;;;;;3.45;79.46;102535.06;5012816;28;20312;-40
2022/01/21 12:18:23;;;;;;;8.32;2.05;;;;;;;3.34;79.59;102528.69;5013022;28;20234;-43